PST,Max TemperatureF,Mean TemperatureF,Min TemperatureF,Max Dew PointF,MeanDew PointF,Min DewpointF,Max Humidity, Mean Humidity, Min Humidity, Max Sea Level PressureIn, Mean Sea Level PressureIn, Min Sea Level PressureIn, Max VisibilityMiles, Mean VisibilityMiles, Min VisibilityMiles, Max Wind SpeedMPH, Mean Wind SpeedMPH, Max Gust SpeedMPH,PrecipitationIn, CloudCover, Events, WindDirDegrees
2011-11-1,51,40,28,39,33,25,93,80,54,30.59,30.53,30.46,10,6,0,4,0,,0.00,4,,200
2011-11-2,60,44,28,41,32,25,93,70,38,30.36,30.02,29.82,10,10,2,25,3,34,0.10,2,,176
2011-11-3,50,42,35,41,38,32,93,81,62,29.91,29.88,29.85,10,9,3,13,4,,0.47,5,,99
2011-11-4,44,36,28,37,32,27,93,84,66,29.98,29.95,29.92,10,5,0,4,0,,0.00,8,,137
2011-11-5,48,39,28,36,31,25,93,77,54,29.90,29.84,29.80,10,10,10,7,0,,0.00,2,,357
2011-11-6,46,35,24,34,27,21,93,78,57,30.09,29.97,29.87,10,8,0,5,0,,0.00,2,,316
2011-11-7,46,37,28,43,35,27,93,83,76,30.23,30.22,30.20,10,9,2,13,2,17,0.00,7,,142
2011-11-8,55,48,41,43,39,36,87,73,51,30.28,30.26,30.24,10,10,10,12,5,,0.00,5,,130
2011-11-9,60,51,42,48,42,37,87,75,54,30.28,30.24,30.18,10,10,10,8,2,,0.00,5,,35
2011-11-10,60,46,33,43,36,30,93,75,45,30.17,30.09,29.98,10,10,10,5,0,,0.00,1,,170
2011-11-11,51,40,30,43,35,27,93,82,58,29.91,29.66,29.49,10,8,1,22,3,29,0.38,6,,168
2011-11-12,44,38,33,41,35,30,93,84,76,29.88,29.78,29.61,10,10,3,21,5,26,0.06,7,,150
2011-11-13,46,42,39,39,37,34,93,79,62,29.89,29.83,29.69,10,9,5,17,7,24,0.11,8,,199
2011-11-14,46,40,33,39,33,28,87,69,53,30.11,29.98,29.85,10,10,8,15,4,25,0.00,6,,292
2011-11-15,46,38,30,36,31,25,93,77,53,30.33,30.28,30.15,10,10,8,6,1,,0.01,3,,199
2011-11-16,50,38,28,45,32,21,87,79,65,30.30,29.95,29.52,10,10,3,29,5,34,0.00,6,,131
2011-11-17,44,40,35,39,32,28,81,72,57,29.87,29.75,29.61,10,10,5,16,7,25,0.02,8,,163
2011-11-18,42,35,28,34,30,23,87,80,61,29.77,29.66,29.59,10,9,0,14,4,,0.02,6,,156
2011-11-19,41,31,21,28,23,16,93,77,53,29.96,29.85,29.78,10,6,0,6,1,,0.00,3,,326
2011-11-20,37,28,19,27,23,14,93,79,65,29.99,29.94,29.84,10,9,0,6,0,,0.00,1,,36
2011-11-21,48,39,30,39,35,27,87,77,66,29.81,29.68,29.52,10,10,8,24,9,32,0.03,7,,140
2011-11-22,51,45,39,46,40,36,93,81,71,29.68,29.54,29.38,10,9,5,31,15,40,0.93,8,,133
2011-11-23,53,46,39,48,40,36,93,84,77,29.85,29.61,29.37,10,8,2,30,9,38,1.09,8,,170
2011-11-24,44,42,39,37,34,28,87,74,53,29.86,29.71,29.56,10,10,6,20,6,34,0.05,8,,159
2011-11-25,48,42,35,36,30,27,81,67,53,30.43,30.30,29.90,10,10,7,15,4,22,0.01,6,,145
2011-11-26,55,47,39,43,35,28,76,65,50,30.37,30.29,30.13,10,10,10,20,7,23,0.00,8,,158
2011-11-27,55,46,37,45,40,30,87,72,51,30.36,30.10,29.92,10,10,7,22,12,28,0.45,7,,174
2011-11-28,46,39,32,37,33,28,87,78,61,30.53,30.48,30.40,10,9,0,6,0,,0.00,3,,312
2011-11-29,42,37,32,36,32,28,93,78,65,30.46,30.30,30.16,10,10,3,21,2,25,0.00,8,,143
2011-11-30,46,40,33,37,35,28,93,81,66,30.80,30.59,30.25,10,10,4,9,4,,0.01,6,,339